Flight Track Log - Related Links

Times and Time Zones

All times are in EDT time to prevent confusion due to time zone crossing. See the C-FMFU flight status page for this flight to view local times or setup timezone preferences in your user account.

Time Position Orientation Groundspeed Altitude Reporting Facility
EDT Latitude Longitude Course Direction KTS MPH feet Rate Location/Type
Mon 01:33:00 PM 49.9045 -98.2901 280° West  Level Estimated
Mon 01:34:00 PM 49.9191 -98.4223 280° West  Level Estimated
Mon 01:35:00 PM 49.9336 -98.5546 280° West  Level Estimated
Mon 01:36:00 PM 49.9479 -98.6869 280° West  Level Estimated
Mon 01:37:00 PM 49.9621 -98.8193 279° West  Level Estimated
Mon 01:38:00 PM 49.9860 -99.0221 280° West  Level FlightAware Approximate
Mon 01:39:00 PM 50.0096 -99.2251 280° West  Level FlightAware Approximate
Mon 01:40:00 PM 50.0329 -99.4283 280° West  Level FlightAware Approximate
Mon 01:41:00 PM 50.0558 -99.6317 280° West  Level FlightAware Approximate
Mon 01:42:00 PM 50.0783 -99.8353 280° West  Level FlightAware Approximate
Mon 01:43:00 PM 50.1005 -100.0390 280° West  Level FlightAware Approximate
Mon 01:44:00 PM 50.1223 -100.2430 280° West  Level FlightAware Approximate
Mon 01:45:00 PM 50.1438 -100.4471 279° West  Level FlightAware Approximate
Mon 01:46:00 PM 50.1649 -100.6514 279° West  Level FlightAware Approximate
Mon 01:47:00 PM 50.1856 -100.8559 279° West  Level FlightAware Approximate
Mon 01:48:00 PM 50.2062 -101.0606 279° West  Level FlightAware Approximate
Mon 01:49:00 PM 50.2271 -101.2653 279° West  Level FlightAware Approximate
Mon 01:50:00 PM 50.2475 -101.4701 279° West  Level FlightAware Approximate
Mon 01:51:00 PM 50.2676 -101.6751 279° West  Level FlightAware Approximate
Mon 01:52:00 PM 50.2874 -101.8803 279° West  Level FlightAware Approximate
Mon 01:53:00 PM 50.3068 -102.0856 278° West  Level FlightAware Approximate
Mon 01:54:00 PM 50.3258 -102.2912 278° West  Level FlightAware Approximate
Mon 01:55:00 PM 50.3444 -102.4968 278° West  Level FlightAware Approximate
Mon 01:56:00 PM 50.3627 -102.7027 278° West  Level FlightAware Approximate
Mon 01:57:00 PM 50.3807 -102.9087 278° West  Level FlightAware Approximate
Mon 01:58:00 PM 50.3982 -103.1148 278° West  Level FlightAware Approximate
Mon 01:59:00 PM 50.4154 -103.3211 278° West  Level FlightAware Approximate
Mon 02:00:00 PM 50.4323 -103.5276 277° West  Level FlightAware Approximate
Mon 02:01:00 PM 50.4487 -103.7342 277° West  Level FlightAware Approximate
Mon 02:02:00 PM 50.4661 -103.9407 278° West  Level FlightAware Approximate
Mon 02:03:00 PM 50.4832 -104.1473 277° West  Level FlightAware Approximate
Mon 02:04:00 PM 50.4999 -104.3541 277° West  Level FlightAware Approximate
Mon 02:05:00 PM 50.5162 -104.5610 277° West  Level FlightAware Approximate
Mon 02:06:00 PM 50.4319 -104.6658 277° West  Level Estimated
Mon 02:07:00 PM 50.4319 -104.6658 287° West  Level Estimated
Mon 02:08:00 PM 50.4319 -104.6658 287° West  Level Estimated
Mon 02:09:00 PM 50.4319 -104.6658 287° West  Level Estimated
Mon 02:10:00 PM 50.4319 -104.6658 263° West  Level Estimated
Mon 02:11:00 PM 50.4319 -104.6658 102° East  Level Estimated
Mon 02:12:00 PM 50.4319 -104.6658 100° East  Level Estimated
Mon 02:13:00 PM 50.4319 -104.6658 147° Southeast  Level Estimated
Mon 02:14:00 PM 50.4319 -104.6658 147° Southeast  Level Estimated
Mon 02:15:00 PM 50.4319 -104.6658 147° Southeast  Level Estimated
Mon 02:16:00 PM 50.4319 -104.6658 147° Southeast  Level Estimated
Mon 02:17:00 PM 50.4319 -104.6658 100° East  Level Estimated
Mon 02:18:00 PM 50.4319 -104.6658 100° East  Level Estimated
Mon 02:19:00 PM 50.4319 -104.6658 100° East  Level Estimated
Mon 02:20:00 PM 50.4319 -104.6658 100° East  Level Estimated
Mon 02:21:00 PM 50.4319 -104.6658 100° East  Level Estimated
Mon 02:22:00 PM 50.4319 -104.6658 100° East  Level Estimated
Mon 02:23:00 PM 50.4319 -104.6658 100° East  Level Estimated
Mon 02:24:00 PM 50.4319 -104.6658 100° East  Level Estimated
Mon 02:25:00 PM 50.4319 -104.6658 100° East  Level Estimated
Mon 02:26:00 PM 50.4319 -104.6658 100° East  Level Estimated
Mon 02:27:00 PM 50.4319 -104.6658 100° East  Level Estimated
Mon 02:28:00 PM 50.4319 -104.6658 100° East  Level Estimated
Mon 02:29:00 PM 50.4319 -104.6658 100° East  Level Estimated
Mon 02:30:00 PM 50.4319 -104.6658 100° East  Level Estimated
Mon 02:31:00 PM 50.4319 -104.6658 100° East  Level Estimated
Mon 02:32:00 PM 50.4319 -104.6658 100° East  Level Estimated
Mon 02:33:00 PM 50.4319 -104.6658 100° East  Level Estimated
Mon 02:34:00 PM 50.4319 -104.6658 100° East  Level Estimated
Mon 02:35:00 PM 50.4319 -104.6658 100° East  Level Estimated
Mon 02:36:00 PM 50.4319 -104.6658 100° East  Level Estimated
Mon 02:37:00 PM 50.4319 -104.6658 100° East  Level Estimated
Mon 02:38:00 PM 50.4319 -104.6658 100° East  Level Estimated
Mon 02:39:00 PM 50.4319 -104.6658 100° East  Level Estimated
Mon 02:40:00 PM 50.4319 -104.6658 100° East  Level Estimated
Mon 02:41:00 PM 50.4319 -104.6658 100° East  Level Estimated
Mon 02:42:00 PM 50.4319 -104.6658 100° East  Level Estimated
Mon 02:43:00 PM 50.4319 -104.6658 100° East  Level Estimated
Mon 02:44:00 PM 50.4319 -104.6658 100° East  Level Estimated
Mon 02:45:00 PM 50.4319 -104.6658 100° East  Level Estimated
Mon 02:46:00 PM 50.4319 -104.6658 100° East  Level Estimated
Mon 02:47:00 PM 50.4319 -104.6658 100° East  Level Estimated
Mon 02:48:00 PM 50.4319 -104.6658 100° East  Level Estimated
Mon 02:49:00 PM 50.4319 -104.6658 100° East  Level Estimated
Mon 02:50:00 PM 50.4319 -104.6658 100° East  Level Estimated
Mon 02:51:00 PM 50.4319 -104.6658 100° East  Level Estimated
Mon 02:52:00 PM 50.4319 -104.6658 100° East  Level Estimated
Mon 02:53:00 PM 50.4319 -104.6658 100° East  Level Estimated
Mon 02:54:00 PM 50.4319 -104.6658 100° East  Level Estimated
Mon 02:55:00 PM 50.4319 -104.6658 100° East  Level Estimated

Login

Don't have an account? Register now (free) for customized features, flight alerts, and more!